Terminal Aerodrome Forecast
Issued by NWS

Home | Current Version | Previous Version | Text Only | Print | Product List | Glossary On
Versions: 1 2 3 4 5 6 7 8 9 10 11 12 13
000
FTUS44 KEPZ 231700
TAFTCS
TAF
KTCS 231720Z 2318/2418 21012G20KT P6SM SCT250
     FM232000 23022G37KT P6SM FEW250
     FM240200 25014G25KT P6SM SKC
     FM240500 29008KT P6SM SKC=

USA.gov is the U.S. government's official web portal to all federal, state and local government web resources and services.